createdAt,value
2022-09-15T00:00:28.363Z,99182.53
2022-09-15T00:02:54.954Z,99165.09
2022-09-15T00:05:21.514Z,99155.84
2022-09-15T00:07:47.984Z,99142.59
2022-09-15T00:10:14.584Z,99138.22
2022-09-15T00:12:41.115Z,99090.69
2022-09-15T00:15:07.978Z,99105.09
2022-09-15T00:17:34.535Z,99110.78
2022-09-15T00:20:01.190Z,99134.56
2022-09-15T00:22:28.262Z,99166.94
2022-09-15T00:24:54.795Z,99171.56
2022-09-15T00:27:21.292Z,99169.44
2022-09-15T00:29:47.802Z,99164.59
2022-09-15T00:32:14.303Z,99178.69
2022-09-15T00:34:40.790Z,99190.41
2022-09-15T00:37:07.350Z,99202.00
2022-09-15T00:39:34.167Z,99210.03
2022-09-15T00:42:00.631Z,99225.56
2022-09-15T00:44:35.932Z,99224.34
2022-09-15T00:47:18.885Z,99236.91
2022-09-15T00:49:48.814Z,99237.53
2022-09-15T00:52:27.814Z,99243.44
2022-09-15T00:55:05.957Z,99236.50
2022-09-15T00:57:51.208Z,99237.53
2022-09-15T01:00:20.835Z,99226.59
2022-09-15T01:02:49.124Z,99226.84
2022-09-15T01:05:18.087Z,99235.84
2022-09-15T01:07:51.848Z,99244.03
2022-09-15T01:10:26.327Z,99243.22
2022-09-15T01:12:57.105Z,99243.44
2022-09-15T01:15:29.715Z,99241.38
2022-09-15T01:18:27.362Z,99228.56
2022-09-15T01:21:06.211Z,99229.41
2022-09-15T01:23:53.560Z,99236.94
2022-09-15T01:26:38.372Z,99229.19
2022-09-15T01:29:29.330Z,99234.88
2022-09-15T01:32:24.614Z,99227.16
2022-09-15T01:34:59.355Z,99226.31
2022-09-15T01:37:32.586Z,99228.44
2022-09-15T01:40:00.853Z,99227.56
2022-09-15T01:42:30.564Z,99234.53
2022-09-15T01:45:17.191Z,99227.19
2022-09-15T01:47:47.209Z,99240.81
2022-09-15T01:50:18.893Z,99235.38
2022-09-15T01:52:49.012Z,99242.94
2022-09-15T01:55:23.749Z,99242.94
2022-09-15T01:57:50.567Z,99242.69
2022-09-15T02:00:17.205Z,99241.50
2022-09-15T02:02:50.706Z,99239.19
2022-09-15T02:05:30.332Z,99240.03
2022-09-15T02:08:23.092Z,99236.47
2022-09-15T02:11:00.106Z,99237.53
2022-09-15T02:13:42.857Z,99236.47
2022-09-15T02:16:19.927Z,99238.34
2022-09-15T02:19:10.162Z,99241.72
2022-09-15T02:22:08.070Z,99247.63
2022-09-15T02:24:47.807Z,99243.22
2022-09-15T02:27:22.191Z,99242.00
2022-09-15T02:29:50.720Z,99247.25
2022-09-15T02:32:21.033Z,99247.47
2022-09-15T02:34:51.555Z,99242.00
2022-09-15T02:37:21.486Z,99239.72
2022-09-15T02:39:52.108Z,99242.88
2022-09-15T02:42:26.443Z,99236.78
2022-09-15T02:44:53.427Z,99230.53
2022-09-15T02:47:20.017Z,99237.66
2022-09-15T02:49:46.589Z,99237.66
2022-09-15T02:52:13.135Z,99230.31
2022-09-15T02:54:39.644Z,99235.13
2022-09-15T02:57:06.795Z,99237.84
2022-09-15T02:59:51.985Z,99239.75
2022-09-15T03:02:20.562Z,99230.75
2022-09-15T03:04:48.231Z,99237.25
2022-09-15T03:07:15.424Z,99234.72
2022-09-15T03:09:42.007Z,99237.47
2022-09-15T03:12:09.348Z,99240.63
2022-09-15T03:14:36.091Z,99238.94
2022-09-15T03:17:03.193Z,99241.66
2022-09-15T03:19:29.715Z,99246.50
2022-09-15T03:21:56.368Z,99240.22
2022-09-15T03:24:23.164Z,99245.91
2022-09-15T03:26:50.125Z,99247.16
2022-09-15T03:29:16.847Z,99246.53
2022-09-15T03:31:43.551Z,99239.63
2022-09-15T03:34:10.194Z,99228.13
2022-09-15T03:36:36.737Z,99232.09
2022-09-15T03:39:03.386Z,99233.75
2022-09-15T03:41:29.998Z,99232.47
2022-09-15T03:43:56.713Z,99229.56
2022-09-15T03:46:23.366Z,99228.69
2022-09-15T03:48:49.878Z,99226.19
2022-09-15T03:51:16.374Z,99236.28
2022-09-15T03:53:42.975Z,99239.00
2022-09-15T03:56:18.670Z,99254.50
2022-09-15T03:58:45.156Z,99256.41
2022-09-15T04:01:12.609Z,99251.78
2022-09-15T04:03:45.218Z,99258.06
2022-09-15T04:06:13.240Z,99256.41
2022-09-15T04:08:39.746Z,99259.53
2022-09-15T04:11:07.930Z,99269.59
2022-09-15T04:13:36.307Z,99261.41
2022-09-15T04:16:05.839Z,99257.88
2022-09-15T04:18:33.234Z,99251.59
2022-09-15T04:21:15.750Z,99260.00
2022-09-15T04:23:43.114Z,99268.38
2022-09-15T04:26:31.482Z,99256.41
2022-09-15T04:29:03.952Z,99265.66
2022-09-15T04:31:33.200Z,99268.38
2022-09-15T04:33:59.811Z,99274.03
2022-09-15T04:36:28.459Z,99287.03
2022-09-15T04:38:56.573Z,99282.81
2022-09-15T04:41:24.328Z,99279.69
2022-09-15T04:43:52.505Z,99289.31
2022-09-15T04:46:19.861Z,99291.22
2022-09-15T04:48:46.705Z,99277.38
2022-09-15T04:51:16.695Z,99268.78
2022-09-15T04:53:44.409Z,99266.44
2022-09-15T04:56:13.341Z,99252.63
2022-09-15T04:58:48.846Z,99249.44
2022-09-15T05:01:18.073Z,99253.19
2022-09-15T05:03:46.642Z,99250.03
2022-09-15T05:06:15.819Z,99266.16
2022-09-15T05:08:42.493Z,99270.72
2022-09-15T05:11:11.475Z,99288.28
2022-09-15T05:13:38.797Z,99273.38
2022-09-15T05:16:06.968Z,99281.75
2022-09-15T05:18:34.153Z,99286.56
2022-09-15T05:21:01.573Z,99299.72
2022-09-15T05:23:28.842Z,99314.56
2022-09-15T05:25:59.705Z,99319.41
2022-09-15T05:28:27.458Z,99315.03
2022-09-15T05:30:55.513Z,99310.38
2022-09-15T05:33:23.914Z,99328.19
2022-09-15T05:35:59.432Z,99330.25
2022-09-15T05:38:28.415Z,99334.25
2022-09-15T05:40:55.939Z,99328.16
2022-09-15T05:43:22.664Z,99318.72
2022-09-15T05:45:55.634Z,99327.50
2022-09-15T05:48:22.242Z,99329.81
2022-09-15T05:50:50.750Z,99336.47
2022-09-15T05:53:17.422Z,99320.75
2022-09-15T05:55:44.070Z,99324.06
2022-09-15T05:58:10.890Z,99316.72
2022-09-15T06:00:38.274Z,99329.91
2022-09-15T06:03:04.800Z,99332.22
2022-09-15T06:05:31.614Z,99328.03
2022-09-15T06:07:58.079Z,99321.06
2022-09-15T06:10:25.738Z,99335.09
2022-09-15T06:12:55.597Z,99330.25
2022-09-15T06:15:23.676Z,99327.94
2022-09-15T06:17:50.875Z,99332.72
2022-09-15T06:20:18.704Z,99340.00
2022-09-15T06:22:45.969Z,99337.66
2022-09-15T06:25:13.399Z,99325.72
2022-09-15T06:27:40.632Z,99339.75
2022-09-15T06:30:08.703Z,99358.41
2022-09-15T06:32:36.411Z,99354.16
2022-09-15T06:35:07.795Z,99345.50
2022-09-15T06:37:34.883Z,99336.66
2022-09-15T06:40:02.176Z,99349.88
2022-09-15T06:42:28.716Z,99358.44
2022-09-15T06:44:55.208Z,99347.50
2022-09-15T06:47:21.763Z,99355.88
2022-09-15T06:49:48.278Z,99363.19
2022-09-15T06:52:14.758Z,99353.72
2022-09-15T06:54:41.257Z,99352.06
2022-09-15T06:57:08.095Z,99353.88
2022-09-15T06:59:34.622Z,99357.84
2022-09-15T07:02:04.846Z,99362.03
2022-09-15T07:04:31.721Z,99356.09
2022-09-15T07:06:58.283Z,99358.16
2022-09-15T07:09:24.774Z,99362.94
2022-09-15T07:11:51.242Z,99361.66
2022-09-15T07:14:17.911Z,99369.16
2022-09-15T07:16:44.468Z,99369.53
2022-09-15T07:19:12.617Z,99379.41
2022-09-15T07:21:39.107Z,99378.28
2022-09-15T07:24:07.481Z,99379.44
2022-09-15T07:26:34.255Z,99378.03
2022-09-15T07:29:02.551Z,99387.38
2022-09-15T07:31:31.716Z,99394.03
2022-09-15T07:34:02.243Z,99393.63
2022-09-15T07:36:29.705Z,99392.13
2022-09-15T07:38:56.500Z,99399.41
2022-09-15T07:41:25.306Z,99390.38
2022-09-15T07:43:56.731Z,99399.53
2022-09-15T07:46:25.073Z,99383.47
2022-09-15T07:48:53.740Z,99384.47
2022-09-15T07:51:20.433Z,99380.31
2022-09-15T07:53:48.389Z,99382.94
2022-09-15T07:56:17.915Z,99390.22
2022-09-15T07:58:45.901Z,99396.44
2022-09-15T08:01:14.726Z,99405.03
2022-09-15T08:03:42.973Z,99401.59
2022-09-15T08:06:10.881Z,99393.88
2022-09-15T08:08:39.476Z,99392.09
2022-09-15T08:11:07.760Z,99395.75
2022-09-15T08:13:34.436Z,99391.25
2022-09-15T08:16:09.973Z,99386.72
2022-09-15T08:18:36.702Z,99393.16
2022-09-15T08:21:07.893Z,99399.72
2022-09-15T08:23:34.381Z,99396.34
2022-09-15T08:26:01.285Z,99394.09
2022-09-15T08:28:27.927Z,99401.72
2022-09-15T08:31:01.942Z,99403.50
2022-09-15T08:33:28.901Z,99387.72
2022-09-15T08:36:00.348Z,99383.03
2022-09-15T08:38:26.992Z,99381.66
2022-09-15T08:41:05.515Z,99370.28
2022-09-15T08:43:39.279Z,99368.56
2022-09-15T08:46:10.486Z,99366.88
2022-09-15T08:48:45.982Z,99366.97
2022-09-15T08:51:21.367Z,99365.22
2022-09-15T08:53:53.563Z,99365.31
2022-09-15T08:56:21.804Z,99366.56
2022-09-15T08:58:48.723Z,99362.63
2022-09-15T09:01:21.848Z,99352.53
2022-09-15T09:04:07.363Z,99340.97
2022-09-15T09:07:02.434Z,99342.75
2022-09-15T09:09:45.328Z,99341.09
2022-09-15T09:12:29.347Z,99334.13
2022-09-15T09:15:17.352Z,99343.81
2022-09-15T09:18:08.722Z,99335.44
2022-09-15T09:20:53.275Z,99327.88
2022-09-15T09:23:24.480Z,99321.34
2022-09-15T09:25:52.201Z,99313.72
2022-09-15T09:28:32.463Z,99309.66
2022-09-15T09:31:08.161Z,99321.91
2022-09-15T09:33:47.340Z,99328.06
2022-09-15T09:36:14.882Z,99328.16
2022-09-15T09:38:44.667Z,99330.75
2022-09-15T09:41:15.333Z,99325.28
2022-09-15T09:43:47.490Z,99324.84
2022-09-15T09:46:16.873Z,99318.84
2022-09-15T09:48:50.148Z,99312.03
2022-09-15T09:51:52.138Z,99305.97
2022-09-15T09:54:21.362Z,99308.53
2022-09-15T09:56:53.127Z,99293.91
2022-09-15T09:59:43.109Z,99289.50
2022-09-15T10:02:12.736Z,99296.41
2022-09-15T10:04:41.116Z,99283.69
2022-09-15T10:07:08.636Z,99279.00
2022-09-15T10:09:36.853Z,99277.03
2022-09-15T10:12:05.523Z,99261.59
2022-09-15T10:14:41.218Z,99258.25
2022-09-15T10:17:14.261Z,99260.47
2022-09-15T10:19:55.903Z,99257.91
2022-09-15T10:22:37.491Z,99245.50
2022-09-15T10:25:22.048Z,99229.47
2022-09-15T10:28:10.384Z,99227.00
2022-09-15T10:30:37.990Z,99224.56
2022-09-15T10:33:35.163Z,99212.13
2022-09-15T10:36:17.345Z,99222.31
2022-09-15T10:38:46.473Z,99220.09
2022-09-15T10:41:31.123Z,99216.09
2022-09-15T10:44:15.676Z,99217.75
2022-09-15T10:47:04.224Z,99230.41
2022-09-15T10:49:45.857Z,99219.09
2022-09-15T10:52:33.962Z,99225.47
2022-09-15T10:55:42.167Z,99239.69
2022-09-15T10:58:26.367Z,99240.31
2022-09-15T11:01:10.994Z,99238.63
2022-09-15T11:03:48.205Z,99245.28
2022-09-15T11:06:23.174Z,99247.78
2022-09-15T11:09:08.337Z,99250.25
2022-09-15T11:11:52.663Z,99240.59
2022-09-15T11:14:40.603Z,99238.03
2022-09-15T11:17:15.154Z,99237.72
2022-09-15T11:20:01.001Z,99231.91
2022-09-15T11:22:39.111Z,99229.69
2022-09-15T11:25:15.912Z,99227.44
2022-09-15T11:27:58.511Z,99232.66
2022-09-15T11:30:29.672Z,99227.88
2022-09-15T11:33:11.227Z,99227.28
2022-09-15T11:35:48.115Z,99220.66
2022-09-15T11:38:40.691Z,99214.31
2022-09-15T11:41:25.979Z,99199.97
2022-09-15T11:44:16.047Z,99200.75
2022-09-15T11:46:58.608Z,99182.50
2022-09-15T11:49:35.304Z,99166.25
2022-09-15T11:52:14.604Z,99150.50
2022-09-15T11:55:17.020Z,99155.50
2022-09-15T11:57:51.397Z,99146.72
2022-09-15T12:00:18.076Z,99155.25
2022-09-15T12:03:03.335Z,99162.41
2022-09-15T12:05:31.965Z,99173.66
2022-09-15T12:08:05.631Z,99170.84
2022-09-15T12:10:38.893Z,99181.53
2022-09-15T12:13:05.702Z,99188.09
2022-09-15T12:15:32.590Z,99179.50
2022-09-15T12:18:34.619Z,99172.34
2022-09-15T12:21:19.862Z,99166.28
2022-09-15T12:24:00.131Z,99146.13
2022-09-15T12:26:27.726Z,99144.47
2022-09-15T12:28:57.457Z,99145.00
2022-09-15T12:31:35.753Z,99135.91
2022-09-15T12:34:38.352Z,99127.94
2022-09-15T12:37:14.854Z,99128.78
2022-09-15T12:39:44.062Z,99132.41
2022-09-15T12:42:10.557Z,99129.44
2022-09-15T12:44:42.339Z,99132.69
2022-09-15T12:47:21.955Z,99109.31
2022-09-15T12:49:51.399Z,99087.28
2022-09-15T12:52:20.559Z,99080.97
2022-09-15T12:54:53.344Z,99100.47
2022-09-15T12:57:37.077Z,99121.03
2022-09-15T13:00:29.935Z,99112.06
2022-09-15T13:02:57.011Z,99214.16
2022-09-15T13:05:41.714Z,99236.13
2022-09-15T13:08:34.678Z,99174.56
2022-09-15T13:11:09.760Z,99182.31
2022-09-15T13:13:59.486Z,99177.75
2022-09-15T13:16:41.265Z,99183.28
2022-09-15T13:19:46.615Z,99177.81
2022-09-15T13:22:40.095Z,99178.50
2022-09-15T13:25:10.807Z,99177.97
2022-09-15T13:27:43.274Z,99180.88
2022-09-15T13:30:29.525Z,99180.31
2022-09-15T13:33:21.037Z,99182.50
2022-09-15T13:36:13.286Z,99186.31
2022-09-15T13:39:05.620Z,99183.59
2022-09-15T13:42:31.348Z,99182.00
2022-09-15T13:45:13.039Z,99167.38
2022-09-15T13:48:06.545Z,99161.91
2022-09-15T13:50:40.187Z,99174.50
2022-09-15T13:53:37.214Z,99180.56
2022-09-15T13:56:09.599Z,99167.50
2022-09-15T14:01:24.179Z,99167.44
2022-09-15T14:03:54.943Z,99169.69
2022-09-15T14:06:26.095Z,99156.34
2022-09-15T14:08:58.817Z,99162.66
2022-09-15T14:11:35.552Z,99179.03
2022-09-15T14:14:03.012Z,99154.00
2022-09-15T14:16:36.491Z,99155.53
2022-09-15T14:19:24.682Z,99150.09
2022-09-15T14:21:53.792Z,99141.19
2022-09-15T14:24:30.589Z,99143.78
2022-09-15T14:27:08.419Z,99146.50
2022-09-15T14:29:40.362Z,99157.44
2022-09-15T14:32:11.463Z,99181.09
2022-09-15T14:34:38.591Z,99190.22
2022-09-15T14:37:17.310Z,99196.16
2022-09-15T14:39:50.512Z,99187.72
2022-09-15T14:42:22.430Z,99185.63
2022-09-15T14:47:38.887Z,99159.94
2022-09-15T14:50:19.741Z,99193.50
2022-09-15T14:53:17.214Z,99221.47
2022-09-15T14:56:08.269Z,99224.97
2022-09-15T14:58:42.482Z,99224.38
2022-09-15T15:01:17.187Z,99212.59
2022-09-15T15:03:56.735Z,99184.56
2022-09-15T15:06:30.070Z,99189.78
2022-09-15T15:09:06.758Z,99204.00
2022-09-15T15:11:35.379Z,99227.41
2022-09-15T15:14:03.003Z,99234.16
2022-09-15T15:16:31.513Z,99233.13
2022-09-15T15:18:58.244Z,99222.28
2022-09-15T15:21:52.332Z,99188.91
2022-09-15T15:24:20.705Z,99172.94
2022-09-15T15:26:51.187Z,99198.50
2022-09-15T15:29:43.208Z,99189.75
2022-09-15T15:32:15.391Z,99184.34
2022-09-15T15:34:58.638Z,99226.16
2022-09-15T15:37:30.171Z,99219.94
2022-09-15T15:39:58.734Z,99216.19
2022-09-15T15:42:26.748Z,99209.13
2022-09-15T15:45:19.480Z,99217.31
2022-09-15T15:47:46.070Z,99216.13
2022-09-15T15:50:14.658Z,99205.91
2022-09-15T15:52:42.154Z,99193.56
2022-09-15T15:55:13.587Z,99186.81
2022-09-15T15:57:40.162Z,99185.94
2022-09-15T16:00:20.927Z,99177.50
2022-09-15T16:02:48.582Z,99181.59
2022-09-15T16:05:15.467Z,99165.84
2022-09-15T16:07:43.157Z,99156.38
2022-09-15T16:10:16.127Z,99153.59
2022-09-15T16:12:43.472Z,99142.00
2022-09-15T16:15:16.751Z,99147.84
2022-09-15T16:17:46.672Z,99127.66
2022-09-15T16:20:16.058Z,99130.69
2022-09-15T16:22:43.531Z,99119.25
2022-09-15T16:25:23.297Z,99111.06
2022-09-15T16:27:49.775Z,99110.47
2022-09-15T16:30:16.293Z,99109.00
2022-09-15T16:32:42.922Z,99110.03
2022-09-15T16:35:21.728Z,99113.22
2022-09-15T16:37:48.270Z,99112.63
2022-09-15T16:40:15.263Z,99116.63
2022-09-15T16:42:41.789Z,99123.75
2022-09-15T16:45:38.181Z,99128.56
2022-09-15T16:48:07.582Z,99140.38
2022-09-15T16:50:34.235Z,99147.72
2022-09-15T16:53:00.736Z,99154.06
2022-09-15T16:55:49.735Z,99148.66
2022-09-15T16:58:17.860Z,99148.31
2022-09-15T17:00:45.907Z,99156.28
2022-09-15T17:03:19.866Z,99155.66
2022-09-15T17:05:50.044Z,99155.03
2022-09-15T17:08:18.606Z,99158.44
2022-09-15T17:10:46.113Z,99175.47
2022-09-15T17:13:17.500Z,99173.41
2022-09-15T17:15:45.886Z,99170.72
2022-09-15T17:18:15.358Z,99168.44
2022-09-15T17:20:43.990Z,99157.38
2022-09-15T17:23:19.803Z,99147.28
2022-09-15T17:25:52.691Z,99149.00
2022-09-15T17:28:24.503Z,99141.50
2022-09-15T17:30:53.431Z,99143.84
2022-09-15T17:33:20.648Z,99142.38
2022-09-15T17:35:48.062Z,99130.81
2022-09-15T17:38:15.120Z,99133.75
2022-09-15T17:40:42.065Z,99131.91
2022-09-15T17:43:21.015Z,99139.47
2022-09-15T17:45:48.643Z,99139.47
2022-09-15T17:48:15.838Z,99143.22
2022-09-15T17:50:42.822Z,99140.31
2022-09-15T17:53:18.051Z,99138.03
2022-09-15T17:55:44.643Z,99137.00
2022-09-15T17:58:11.742Z,99130.31
2022-09-15T18:00:40.198Z,99137.84
2022-09-15T18:03:31.101Z,99139.13
2022-09-15T18:05:59.804Z,99136.81
2022-09-15T18:08:27.403Z,99144.16
2022-09-15T18:10:54.272Z,99148.97
2022-09-15T18:13:23.491Z,99159.84
2022-09-15T18:15:50.623Z,99162.38
2022-09-15T18:18:21.270Z,99149.41
2022-09-15T18:20:49.857Z,99151.09
2022-09-15T18:23:25.242Z,99163.47
2022-09-15T18:25:54.879Z,99170.19
2022-09-15T18:28:21.403Z,99174.16
2022-09-15T18:30:49.872Z,99167.88
2022-09-15T18:33:26.360Z,99173.09
2022-09-15T18:35:59.013Z,99171.19
2022-09-15T18:38:25.907Z,99167.88
2022-09-15T18:40:56.031Z,99170.59
2022-09-15T18:43:25.126Z,99182.94
2022-09-15T18:45:53.256Z,99173.31
2022-09-15T18:48:19.859Z,99170.84
2022-09-15T18:50:46.520Z,99159.53
2022-09-15T18:53:14.067Z,99178.16
2022-09-15T18:55:44.579Z,99171.47
2022-09-15T18:58:12.036Z,99174.19
2022-09-15T19:00:39.146Z,99184.66
2022-09-15T19:03:09.336Z,99193.44
2022-09-15T19:05:36.443Z,99190.94
2022-09-15T19:08:03.569Z,99202.84
2022-09-15T19:10:30.129Z,99193.84
2022-09-15T19:12:56.647Z,99197.81
2022-09-15T19:15:24.290Z,99177.56
2022-09-15T19:17:51.174Z,99178.59
2022-09-15T19:20:17.735Z,99186.75
2022-09-15T19:22:44.247Z,99190.94
2022-09-15T19:25:11.564Z,99187.38
2022-09-15T19:27:39.589Z,99191.56
2022-09-15T19:30:07.321Z,99205.38
2022-09-15T19:32:34.137Z,99207.91
2022-09-15T19:35:00.691Z,99209.16
2022-09-15T19:37:27.558Z,99211.03
2022-09-15T19:39:54.867Z,99200.34
2022-09-15T19:42:21.621Z,99211.22
2022-09-15T19:44:50.429Z,99206.22
2022-09-15T19:47:16.987Z,99214.38
2022-09-15T19:49:43.945Z,99215.00
2022-09-15T19:52:10.609Z,99214.38
2022-09-15T19:54:37.144Z,99218.97
2022-09-15T19:57:04.114Z,99222.69
2022-09-15T19:59:31.803Z,99222.09
2022-09-15T20:02:00.721Z,99224.81
2022-09-15T20:04:28.741Z,99226.25
2022-09-15T20:06:55.249Z,99230.66
2022-09-15T20:09:22.169Z,99228.78
2022-09-15T20:11:48.711Z,99230.84
2022-09-15T20:14:15.980Z,99229.19
2022-09-15T20:16:42.691Z,99236.72
2022-09-15T20:19:09.320Z,99246.72
2022-09-15T20:21:52.997Z,99245.69
2022-09-15T20:24:20.554Z,99236.91
2022-09-15T20:26:47.494Z,99240.69
2022-09-15T20:29:14.388Z,99241.72
2022-09-15T20:31:41.451Z,99243.59
2022-09-15T20:34:08.282Z,99242.56
2022-09-15T20:36:36.711Z,99247.97
2022-09-15T20:39:06.225Z,99255.72
2022-09-15T20:41:32.863Z,99255.91
2022-09-15T20:43:59.770Z,99259.28
2022-09-15T20:46:26.677Z,99267.25
2022-09-15T20:48:53.389Z,99269.97
2022-09-15T20:51:25.697Z,99273.09
2022-09-15T20:53:54.610Z,99276.84
2022-09-15T20:56:24.973Z,99273.09
2022-09-15T20:58:52.849Z,99279.13
2022-09-15T21:01:27.491Z,99282.91
2022-09-15T21:03:55.375Z,99273.94
2022-09-15T21:06:24.891Z,99280.38
2022-09-15T21:08:52.112Z,99292.31
2022-09-15T21:11:20.622Z,99281.47
2022-09-15T21:13:49.363Z,99274.56
2022-09-15T21:16:19.019Z,99273.50
2022-09-15T21:18:46.059Z,99271.47
2022-09-15T21:21:15.607Z,99272.72
2022-09-15T21:23:47.634Z,99269.16
2022-09-15T21:26:21.148Z,99286.53
2022-09-15T21:28:48.756Z,99272.28
2022-09-15T21:31:20.800Z,99271.03
2022-09-15T21:33:48.773Z,99271.88
2022-09-15T21:36:23.356Z,99274.81
2022-09-15T21:38:52.068Z,99276.06
2022-09-15T21:41:21.514Z,99270.78
2022-09-15T21:43:48.924Z,99284.88
2022-09-15T21:46:20.413Z,99275.00
2022-09-15T21:48:48.413Z,99288.59
2022-09-15T21:51:24.254Z,99308.47
2022-09-15T21:53:55.089Z,99316.44
2022-09-15T21:56:22.193Z,99321.03
2022-09-15T21:58:48.947Z,99327.72
2022-09-15T22:01:27.886Z,99328.72
2022-09-15T22:03:59.558Z,99339.38
2022-09-15T22:06:31.742Z,99339.38
2022-09-15T22:09:03.740Z,99356.31
2022-09-15T22:11:30.302Z,99357.78
2022-09-15T22:13:57.158Z,99351.69
2022-09-15T22:16:24.988Z,99352.13
2022-09-15T22:18:51.980Z,99349.00
2022-09-15T22:21:21.523Z,99350.84
2022-09-15T22:23:49.342Z,99348.31
2022-09-15T22:26:21.624Z,99344.78
2022-09-15T22:28:48.980Z,99356.91
2022-09-15T22:31:17.440Z,99352.53
2022-09-15T22:33:44.476Z,99363.19
2022-09-15T22:36:12.701Z,99362.34
2022-09-15T22:38:39.452Z,99364.00
2022-09-15T22:41:09.136Z,99369.66
2022-09-15T22:43:36.348Z,99369.88
2022-09-15T22:46:03.072Z,99376.13
2022-09-15T22:48:29.728Z,99373.66
2022-09-15T22:50:56.367Z,99382.63
2022-09-15T22:53:23.526Z,99382.81
2022-09-15T22:55:51.274Z,99403.06
2022-09-15T22:58:17.822Z,99411.84
2022-09-15T23:00:45.933Z,99412.47
2022-09-15T23:03:12.498Z,99418.75
2022-09-15T23:05:38.985Z,99423.75
2022-09-15T23:08:05.543Z,99432.53
2022-09-15T23:10:32.717Z,99431.06
2022-09-15T23:12:59.632Z,99433.97
2022-09-15T23:15:26.339Z,99443.81
2022-09-15T23:17:52.818Z,99443.59
2022-09-15T23:20:19.333Z,99448.16
2022-09-15T23:22:45.830Z,99441.06
2022-09-15T23:25:12.329Z,99440.44
2022-09-15T23:27:38.811Z,99440.00
2022-09-15T23:30:05.674Z,99438.50
2022-09-15T23:32:32.178Z,99440.00
2022-09-15T23:34:58.691Z,99446.84
2022-09-15T23:37:25.262Z,99437.28
2022-09-15T23:39:52.307Z,99438.03
2022-09-15T23:42:19.186Z,99434.69
2022-09-15T23:44:45.845Z,99437.22
2022-09-15T23:47:12.344Z,99443.03
2022-09-15T23:49:38.858Z,99443.91
2022-09-15T23:52:05.385Z,99430.06
2022-09-15T23:54:31.872Z,99433.84
2022-09-15T23:56:58.426Z,99434.03
2022-09-15T23:59:25.065Z,99427.78
